Terminal Aerodrome Forecast
Issued by NWS Wilmington, OH

Current Version | Previous Version | Graphics & Text | Print | Product List | Glossary On
Versions: 1 2 3 4 5 6 7 8 9 10 11 12 13 14 15 16 17
877
FTUS41 KILN 221120
TAFCMH
TAF
KCMH 221120Z 2212/2312 08006KT P6SM BKN150
     FM222200 06008KT P6SM VCSH OVC080
     FM230300 05008KT 3SM -SHRA OVC015=

USA.gov is the U.S. government's official web portal to all federal, state and local government web resources and services.